Time;durP1;ratioP1;P1;durP2;ratioP2;P2;SDS_P1;SDS_P2;PMS_P1;PMS_P2;Temp;Humidity;BMP_temperature;BMP_pressure;BME280_temperature;BME280_humidity;BME280_pressure;Samples;Min_cycle;Max_cycle;Signal;HPM_P1;HPM_P2
2021/08/17 00:00:11;;;;;;;2.28;0.80;;;21.30;56.30;;;;;;3120931;28;20057;-85
2021/08/17 00:01:43;;;;;;;2.35;0.93;;;21.30;56.40;;;;;;3121749;28;20053;-87
2021/08/17 00:03:16;;;;;;;1.70;0.70;;;21.30;56.40;;;;;;3122291;28;20046;-86
2021/08/17 00:04:48;;;;;;;1.85;0.90;;;21.30;56.40;;;;;;3122061;28;20549;-85
2021/08/17 00:06:19;;;;;;;1.92;0.90;;;21.30;56.40;;;;;;3122281;28;20119;-87
2021/08/17 00:07:51;;;;;;;1.92;0.85;;;21.30;56.40;;;;;;3121500;28;20053;-86
2021/08/17 00:09:23;;;;;;;1.33;0.85;;;21.30;56.40;;;;;;3121613;28;20420;-86
2021/08/17 00:10:54;;;;;;;2.45;0.90;;;21.30;56.50;;;;;;3113423;28;20096;-86
2021/08/17 00:12:26;;;;;;;2.10;1.00;;;21.30;56.40;;;;;;3117032;28;20038;-86
2021/08/17 00:13:58;;;;;;;1.33;0.90;;;21.30;56.50;;;;;;3123982;28;20084;-85
2021/08/17 00:15:30;;;;;;;2.45;0.90;;;21.30;56.50;;;;;;3124088;28;20049;-86
2021/08/17 00:17:02;;;;;;;2.95;1.15;;;21.30;56.50;;;;;;3124238;28;20041;-86
2021/08/17 00:18:35;;;;;;;2.40;0.82;;;21.30;56.50;;;;;;3124411;28;20053;-85
2021/08/17 00:20:07;;;;;;;1.42;0.60;;;21.30;56.60;;;;;;3124075;28;20087;-85
2021/08/17 00:21:39;;;;;;;2.42;0.90;;;21.30;56.60;;;;;;3123801;28;20053;-85
2021/08/17 00:23:11;;;;;;;1.60;0.63;;;21.30;56.60;;;;;;3124618;28;20103;-87
2021/08/17 00:24:43;;;;;;;2.85;1.05;;;21.30;56.60;;;;;;3124628;28;20049;-85
2021/08/17 00:26:14;;;;;;;2.25;0.90;;;21.30;56.60;;;;;;3124588;28;20115;-87
2021/08/17 00:27:46;;;;;;;1.92;0.93;;;21.30;56.70;;;;;;3123685;28;20103;-86
2021/08/17 00:29:18;;;;;;;1.75;0.80;;;21.30;56.70;;;;;;3124230;28;20060;-86
2021/08/17 00:30:49;;;;;;;1.85;0.70;;;21.30;56.70;;;;;;3129653;28;20025;-88
2021/08/17 00:32:20;;;;;;;1.88;0.90;;;21.30;56.70;;;;;;3137583;28;20055;-88
2021/08/17 00:33:53;;;;;;;1.55;0.80;;;21.30;56.60;;;;;;3118999;28;20050;-85
2021/08/17 00:35:25;;;;;;;1.73;0.80;;;21.30;56.70;;;;;;3126026;28;20056;-86
2021/08/17 00:36:57;;;;;;;1.95;0.80;;;21.30;56.70;;;;;;3135370;28;20049;-86
2021/08/17 00:38:29;;;;;;;3.40;1.00;;;21.30;56.70;;;;;;3127774;28;20076;-86
2021/08/17 00:40:01;;;;;;;3.10;1.00;;;21.30;56.70;;;;;;3126615;28;20080;-86
2021/08/17 00:41:35;;;;;;;2.05;0.93;;;21.30;56.60;;;;;;3121273;28;20053;-87
2021/08/17 00:43:08;;;;;;;3.58;1.10;;;21.30;56.60;;;;;;3105054;28;20050;-85
2021/08/17 00:44:40;;;;;;;1.17;0.77;;;21.30;56.70;;;;;;3103788;28;20050;-87
2021/08/17 00:46:13;;;;;;;2.20;0.80;;;21.30;56.70;;;;;;3111622;28;20514;-86
2021/08/17 00:47:44;;;;;;;1.45;0.70;;;21.20;56.60;;;;;;3114748;28;20503;-88
2021/08/17 00:49:17;;;;;;;1.73;0.90;;;21.30;56.70;;;;;;3114705;28;20100;-86
2021/08/17 00:50:49;;;;;;;2.28;0.90;;;21.30;56.70;;;;;;3115279;28;20045;-86
2021/08/17 00:52:20;;;;;;;1.58;0.73;;;21.30;56.70;;;;;;3114866;28;20069;-86
2021/08/17 00:53:53;;;;;;;2.13;0.70;;;21.30;56.70;;;;;;3115620;28;20060;-86
2021/08/17 00:55:25;;;;;;;;;;;21.20;56.70;;;;;;3116882;28;20049;-86
2021/08/17 00:56:57;;;;;;;2.08;1.00;;;21.30;56.70;;;;;;3114230;28;19921;-85
2021/08/17 00:58:29;;;;;;;1.98;0.88;;;21.30;56.70;;;;;;3110916;28;20089;-87
2021/08/17 01:00:00;;;;;;;1.45;0.80;;;21.30;57.30;;;;;;3114916;28;20053;-86
2021/08/17 01:01:32;;;;;;;1.83;0.88;;;21.30;56.70;;;;;;3114623;28;20050;-86
2021/08/17 01:03:04;;;;;;;2.67;1.00;;;21.20;56.70;;;;;;3114570;28;20403;-87
2021/08/17 01:04:39;;;;;;;1.48;0.70;;;21.20;56.80;;;;;;3115619;28;20220;-86
2021/08/17 01:06:10;;;;;;;2.20;0.88;;;21.20;56.80;;;;;;3116002;28;20053;-87
2021/08/17 01:07:42;;;;;;;2.70;0.85;;;21.20;56.80;;;;;;3114755;28;20136;-86
2021/08/17 01:09:14;;;;;;;2.80;1.00;;;21.20;56.80;;;;;;3114792;28;20046;-87
2021/08/17 01:10:45;;;;;;;1.60;0.80;;;21.20;56.90;;;;;;3107666;28;20046;-85
2021/08/17 01:12:17;;;;;;;1.73;0.80;;;21.20;56.80;;;;;;3109300;28;20046;-87
2021/08/17 01:13:49;;;;;;;1.58;0.77;;;21.20;56.80;;;;;;3115906;28;20046;-88
2021/08/17 01:15:21;;;;;;;2.65;0.80;;;21.20;56.90;;;;;;3113604;28;20041;-86
2021/08/17 01:16:53;;;;;;;1.50;0.73;;;21.20;56.90;;;;;;3111858;28;20050;-86
2021/08/17 01:18:25;;;;;;;1.83;0.77;;;21.20;56.90;;;;;;3107502;28;20050;-86
2021/08/17 01:19:58;;;;;;;2.20;1.00;;;21.20;57.00;;;;;;3108549;28;20057;-87
2021/08/17 01:21:30;;;;;;;1.52;0.80;;;21.20;57.00;;;;;;3112127;28;20061;-87
2021/08/17 01:23:02;;;;;;;2.30;0.85;;;21.20;57.00;;;;;;3111090;28;20050;-86
2021/08/17 01:24:34;;;;;;;1.33;0.75;;;21.20;56.90;;;;;;3111911;28;20108;-86
2021/08/17 01:26:07;;;;;;;1.70;0.73;;;21.20;57.00;;;;;;3112223;28;20451;-86
2021/08/17 01:27:39;;;;;;;0.80;0.60;;;21.20;57.00;;;;;;3111412;28;20553;-86
2021/08/17 01:29:11;;;;;;;2.57;0.80;;;21.20;57.00;;;;;;3112255;28;20042;-86
2021/08/17 01:30:43;;;;;;;1.98;0.88;;;21.20;57.00;;;;;;3110703;28;20308;-86
2021/08/17 01:32:17;;;;;;;1.27;0.70;;;21.20;57.10;;;;;;3111462;28;20049;-87
2021/08/17 01:33:48;;;;;;;1.80;0.80;;;21.20;57.10;;;;;;3112878;28;20054;-86
2021/08/17 01:35:20;;;;;;;1.88;0.77;;;21.20;57.10;;;;;;3112142;28;20045;-87
2021/08/17 01:36:52;;;;;;;1.88;0.75;;;21.10;57.10;;;;;;3111063;28;20064;-87
2021/08/17 01:38:24;;;;;;;1.63;0.75;;;21.10;57.10;;;;;;3100503;28;20623;-87
2021/08/17 01:40:00;;;;;;;2.08;0.80;;;21.10;57.10;;;;;;3103699;28;20514;-85
2021/08/17 01:41:33;;;;;;;1.27;0.75;;;21.10;57.10;;;;;;3105116;28;20057;-86
2021/08/17 01:43:04;;;;;;;2.22;1.30;;;21.10;57.10;;;;;;3103022;28;20526;-86
2021/08/17 01:44:35;;;;;;;1.75;0.90;;;21.10;57.10;;;;;;3112574;28;20053;-86
2021/08/17 01:46:07;;;;;;;1.58;0.80;;;21.10;57.10;;;;;;3120032;28;20095;-85
2021/08/17 01:47:39;;;;;;;2.30;0.80;;;21.10;57.20;;;;;;3123901;28;20473;-86
2021/08/17 01:49:11;;;;;;;2.17;0.75;;;21.10;57.20;;;;;;3121127;28;20395;-88
2021/08/17 01:50:42;;;;;;;2.03;0.93;;;21.10;57.20;;;;;;3114777;28;20076;-87
2021/08/17 01:52:14;;;;;;;1.77;0.77;;;21.10;57.30;;;;;;3121773;28;20045;-87
2021/08/17 01:53:46;;;;;;;2.20;0.77;;;21.10;57.40;;;;;;3124354;28;20053;-87
2021/08/17 01:55:18;;;;;;;1.55;0.70;;;21.10;57.30;;;;;;3124912;28;20057;-86
2021/08/17 01:56:51;;;;;;;1.08;0.68;;;21.10;57.30;;;;;;3117529;28;20457;-87
2021/08/17 01:58:22;;;;;;;1.90;0.90;;;21.10;57.40;;;;;;3109454;28;20061;-87
2021/08/17 01:59:54;;;;;;;2.00;0.65;;;21.10;57.50;;;;;;3122957;28;20104;-87
2021/08/17 02:01:25;;;;;;;1.77;0.70;;;21.10;57.50;;;;;;3113911;28;20050;-88
2021/08/17 02:02:57;;;;;;;1.45;0.63;;;21.00;57.40;;;;;;3112046;28;20491;-87
2021/08/17 02:04:31;;;;;;;1.90;0.93;;;21.10;57.50;;;;;;3112475;28;20046;-87
2021/08/17 02:06:03;;;;;;;1.98;0.80;;;21.00;57.50;;;;;;3100148;28;20050;-87
2021/08/17 02:07:34;;;;;;;1.20;0.60;;;21.00;57.50;;;;;;3116952;28;20057;-87
2021/08/17 02:09:06;;;;;;;1.20;0.70;;;21.10;57.50;;;;;;3124417;28;20418;-87
2021/08/17 02:10:39;;;;;;;1.67;0.90;;;21.10;57.50;;;;;;3120058;28;20057;-86
2021/08/17 02:12:12;;;;;;;1.25;0.80;;;21.00;57.40;;;;;;3121344;28;20111;-87
2021/08/17 02:13:44;;;;;;;1.85;0.80;;;21.00;57.50;;;;;;3123778;28;20053;-88
2021/08/17 02:15:16;;;;;;;1.15;0.75;;;21.00;57.50;;;;;;3124172;28;20045;-87
2021/08/17 02:16:47;;;;;;;1.20;0.55;;;21.00;57.50;;;;;;3123516;28;20037;-87
2021/08/17 02:18:20;;;;;;;1.35;0.80;;;21.00;57.50;;;;;;3122778;28;20490;-88
2021/08/17 02:19:51;;;;;;;1.38;0.73;;;21.00;57.50;;;;;;3124237;28;20050;-87
2021/08/17 02:21:23;;;;;;;2.08;0.70;;;21.00;57.50;;;;;;3124095;28;20061;-87
2021/08/17 02:22:55;;;;;;;1.08;0.60;;;21.10;57.60;;;;;;3124227;28;20490;-87
2021/08/17 02:24:27;;;;;;;1.48;0.82;;;21.00;57.60;;;;;;3124616;28;20049;-87
2021/08/17 02:25:58;;;;;;;1.48;0.82;;;21.00;57.60;;;;;;3124807;28;20553;-88
2021/08/17 02:27:34;;;;;;;1.63;0.73;;;21.00;57.60;;;;;;3123577;28;20064;-87
2021/08/17 02:29:06;;;;;;;1.08;0.57;;;21.00;57.60;;;;;;3124976;28;20494;-88
2021/08/17 02:30:38;;;;;;;1.45;0.70;;;21.00;57.70;;;;;;3123194;28;20045;-86
2021/08/17 02:32:09;;;;;;;2.70;0.85;;;21.00;57.60;;;;;;3123579;28;20091;-87
2021/08/17 02:33:41;;;;;;;1.67;0.60;;;21.00;57.60;;;;;;3122558;28;20050;-87
2021/08/17 02:35:13;;;;;;;1.08;0.70;;;21.00;57.60;;;;;;3123385;28;20053;-87
2021/08/17 02:36:45;;;;;;;2.53;0.70;;;21.00;57.60;;;;;;3120871;28;20130;-86
2021/08/17 02:38:16;;;;;;;2.25;0.80;;;21.00;57.60;;;;;;3113927;28;20534;-86
2021/08/17 02:39:48;;;;;;;2.08;0.80;;;21.10;57.60;;;;;;3122635;28;20049;-87
2021/08/17 02:41:20;;;;;;;1.85;0.80;;;21.00;57.60;;;;;;3115047;28;20411;-87
2021/08/17 02:42:53;;;;;;;1.30;0.68;;;21.10;57.60;;;;;;3122196;28;20046;-86
2021/08/17 02:44:25;;;;;;;1.60;0.80;;;21.10;57.60;;;;;;3123344;28;20049;-87
2021/08/17 02:45:56;;;;;;;2.08;0.77;;;21.10;57.50;;;;;;3121918;28;20556;-86
2021/08/17 02:47:28;;;;;;;2.00;0.90;;;21.10;57.50;;;;;;3122551;28;20057;-87
2021/08/17 02:49:00;;;;;;;1.30;0.90;;;21.10;57.60;;;;;;3123100;28;20057;-87
2021/08/17 02:50:32;;;;;;;1.52;0.63;;;21.10;57.60;;;;;;3122178;28;20552;-87
2021/08/17 02:52:04;;;;;;;0.73;0.50;;;21.10;57.60;;;;;;3123011;28;20049;-86
2021/08/17 02:53:36;;;;;;;1.30;0.70;;;21.10;57.50;;;;;;3123333;28;20123;-87
2021/08/17 02:55:10;;;;;;;1.52;0.77;;;21.10;57.50;;;;;;3123258;28;20045;-86
2021/08/17 02:56:42;;;;;;;1.67;0.70;;;21.10;57.60;;;;;;3121119;28;20050;-87
2021/08/17 02:58:16;;;;;;;1.42;0.63;;;21.10;57.60;;;;;;3119287;28;20045;-86
2021/08/17 02:59:47;;;;;;;2.00;0.73;;;21.10;57.60;;;;;;3122577;28;20077;-87
2021/08/17 03:01:19;;;;;;;1.23;0.70;;;21.10;57.60;;;;;;3121114;28;20048;-86
2021/08/17 03:02:51;;;;;;;1.60;0.90;;;21.00;57.60;;;;;;3122357;28;20502;-86
2021/08/17 03:04:22;;;;;;;1.00;0.57;;;21.10;57.60;;;;;;3122612;28;20059;-86
2021/08/17 03:05:54;;;;;;;1.98;0.90;;;21.10;57.70;;;;;;3122873;28;20124;-87
2021/08/17 03:07:26;;;;;;;1.55;0.77;;;21.10;57.60;;;;;;3121779;28;20053;-87
2021/08/17 03:08:57;;;;;;;1.58;0.77;;;21.10;57.60;;;;;;3122920;28;20053;-87
2021/08/17 03:10:30;;;;;;;0.90;0.60;;;21.10;57.60;;;;;;3117422;28;20041;-87
2021/08/17 03:12:02;;;;;;;1.63;0.70;;;21.10;57.60;;;;;;3118371;28;20045;-86
2021/08/17 03:13:35;;;;;;;1.45;0.85;;;21.10;57.70;;;;;;3121729;28;20557;-87
2021/08/17 03:15:08;;;;;;;1.25;0.70;;;21.00;57.60;;;;;;3122139;28;20061;-86
2021/08/17 03:16:40;;;;;;;1.38;0.80;;;21.10;57.70;;;;;;3122307;28;20053;-86
2021/08/17 03:18:12;;;;;;;1.30;0.63;;;21.00;57.70;;;;;;3110704;28;20141;-87
2021/08/17 03:19:43;;;;;;;1.60;0.90;;;21.10;57.70;;;;;;3115760;28;20292;-86
2021/08/17 03:21:15;;;;;;;1.00;0.60;;;21.10;57.70;;;;;;3122605;28;20083;-86
2021/08/17 03:22:47;;;;;;;0.75;0.50;;;21.00;57.70;;;;;;3122142;28;20049;-86
2021/08/17 03:24:19;;;;;;;1.48;0.60;;;21.00;57.70;;;;;;3122750;28;20099;-86
2021/08/17 03:25:50;;;;;;;1.50;0.65;;;21.00;57.70;;;;;;3122354;28;20442;-87
2021/08/17 03:27:22;;;;;;;1.50;0.80;;;21.00;57.80;;;;;;3120778;28;20099;-87
2021/08/17 03:28:55;;;;;;;1.08;0.60;;;21.00;57.70;;;;;;3122427;28;20096;-86
2021/08/17 03:30:27;;;;;;;1.33;0.60;;;21.00;57.80;;;;;;3121989;28;20380;-87
2021/08/17 03:31:59;;;;;;;1.60;0.77;;;21.00;57.70;;;;;;3122196;28;20454;-87
2021/08/17 03:33:30;;;;;;;1.50;0.70;;;21.00;57.80;;;;;;3122724;28;20045;-87
2021/08/17 03:35:02;;;;;;;0.93;0.63;;;21.00;57.80;;;;;;3122475;28;20049;-87
2021/08/17 03:36:34;;;;;;;1.67;0.60;;;21.00;57.80;;;;;;3117572;28;20057;-86
2021/08/17 03:38:06;;;;;;;0.90;0.63;;;21.00;57.80;;;;;;3112368;28;20091;-87
2021/08/17 03:39:38;;;;;;;1.52;0.70;;;21.00;57.80;;;;;;3119249;28;20668;-86
2021/08/17 03:41:09;;;;;;;1.50;0.80;;;21.00;57.80;;;;;;3107462;28;20061;-86
2021/08/17 03:42:41;;;;;;;1.67;0.80;;;21.00;58.50;;;;;;3108264;28;20046;-87
2021/08/17 03:44:14;;;;;;;1.50;0.70;;;21.00;58.40;;;;;;3110844;28;20111;-87
2021/08/17 03:45:47;;;;;;;1.67;0.70;;;21.00;57.80;;;;;;3108720;28;20061;-86
2021/08/17 03:47:25;;;;;;;1.45;0.77;;;21.00;57.80;;;;;;3108954;28;20877;-87
2021/08/17 03:48:57;;;;;;;1.65;0.90;;;21.00;57.90;;;;;;3109817;28;20100;-86
2021/08/17 03:50:29;;;;;;;1.08;0.70;;;21.00;57.80;;;;;;3109611;28;20049;-86
2021/08/17 03:52:00;;;;;;;1.80;0.60;;;21.10;57.80;;;;;;3110271;28;20042;-87
2021/08/17 03:53:34;;;;;;;1.23;0.70;;;21.10;57.80;;;;;;3110706;28;20280;-87
2021/08/17 03:55:07;;;;;;;1.20;0.70;;;21.10;57.80;;;;;;3110963;28;20057;-86
2021/08/17 03:56:38;;;;;;;1.15;0.70;;;21.00;57.80;;;;;;3105009;28;20050;-87
2021/08/17 03:58:10;;;;;;;1.27;0.90;;;21.00;57.80;;;;;;3122947;28;20156;-87
2021/08/17 03:59:43;;;;;;;1.23;0.75;;;21.00;57.90;;;;;;3122750;28;20506;-87
2021/08/17 04:01:17;;;;;;;2.13;1.00;;;21.00;57.90;;;;;;3121832;28;20415;-86
2021/08/17 04:02:49;;;;;;;1.80;0.70;;;21.10;57.80;;;;;;3111423;28;20506;-87
2021/08/17 04:04:21;;;;;;;1.67;0.90;;;21.10;57.70;;;;;;3110456;28;20116;-87
2021/08/17 04:05:53;;;;;;;1.08;0.60;;;21.20;57.70;;;;;;3110289;28;20049;-86
2021/08/17 04:07:23;;;;;;;2.00;0.80;;;21.20;57.60;;;;;;3109548;28;20081;-87
2021/08/17 04:08:55;;;;;;;0.82;0.70;;;21.40;57.30;;;;;;3110634;28;20491;-86
2021/08/17 04:10:27;;;;;;;1.25;0.77;;;21.60;56.80;;;;;;3110156;28;20046;-87
2021/08/17 04:11:58;;;;;;;0.98;0.60;;;21.70;56.50;;;;;;3101907;28;20073;-86
2021/08/17 04:13:30;;;;;;;1.00;0.60;;;21.80;56.20;;;;;;3111004;28;20466;-86
2021/08/17 04:15:03;;;;;;;1.90;0.60;;;21.90;55.80;;;;;;3110582;28;20554;-87
2021/08/17 04:16:35;;;;;;;1.20;0.63;;;22.10;55.70;;;;;;3109471;28;20049;-87
2021/08/17 04:18:06;;;;;;;1.48;0.70;;;22.20;55.40;;;;;;3109720;28;20061;-87
2021/08/17 04:19:39;;;;;;;1.27;0.63;;;22.20;55.10;;;;;;3109661;28;20133;-86
2021/08/17 04:21:11;;;;;;;1.20;0.70;;;22.30;55.00;;;;;;3108661;28;20042;-87
2021/08/17 04:22:42;;;;;;;1.15;0.68;;;22.40;54.70;;;;;;3108041;28;20053;-87
2021/08/17 04:24:14;;;;;;;0.80;0.57;;;22.50;54.70;;;;;;3109703;28;20046;-87
2021/08/17 04:25:46;;;;;;;2.00;0.60;;;22.50;54.60;;;;;;3109850;28;20081;-86
2021/08/17 04:27:18;;;;;;;0.60;0.47;;;22.60;54.50;;;;;;3108769;28;20084;-86
2021/08/17 04:28:50;;;;;;;1.00;0.70;;;22.60;54.30;;;;;;3110150;28;20483;-87
2021/08/17 04:30:23;;;;;;;1.73;0.55;;;22.70;54.40;;;;;;3108407;28;20050;-86
2021/08/17 04:31:54;;;;;;;0.73;0.60;;;22.70;54.40;;;;;;3111258;28;20057;-86
2021/08/17 04:33:25;;;;;;;1.17;0.60;;;22.70;54.40;;;;;;3116089;28;20048;-86
2021/08/17 04:34:56;;;;;;;1.23;0.70;;;22.60;54.30;;;;;;3109414;28;20061;-86
2021/08/17 04:36:28;;;;;;;0.98;0.55;;;22.60;54.40;;;;;;3108869;28;20053;-87
2021/08/17 04:37:59;;;;;;;1.25;0.50;;;22.60;54.50;;;;;;3108187;28;20057;-86
2021/08/17 04:39:31;;;;;;;1.63;0.73;;;22.60;54.50;;;;;;3109113;28;20050;-86
2021/08/17 04:41:03;;;;;;;1.55;0.90;;;22.60;54.70;;;;;;3105743;28;20045;-86
2021/08/17 04:42:35;;;;;;;0.90;0.65;;;22.50;54.70;;;;;;3109053;28;20046;-86
2021/08/17 04:44:06;;;;;;;0.75;0.57;;;22.50;55.10;;;;;;3109511;28;20054;-86
2021/08/17 04:45:39;;;;;;;1.40;0.75;;;22.40;55.10;;;;;;3108467;28;20466;-86
2021/08/17 04:47:11;;;;;;;0.95;0.60;;;22.40;55.20;;;;;;3108786;28;20073;-87
2021/08/17 04:48:43;;;;;;;1.73;0.60;;;22.40;55.30;;;;;;3109783;28;20046;-87
2021/08/17 04:50:14;;;;;;;1.20;0.70;;;22.40;55.30;;;;;;3108599;28;20088;-86
2021/08/17 04:51:46;;;;;;;1.52;0.70;;;22.30;55.40;;;;;;3108188;28;20045;-86
2021/08/17 04:53:18;;;;;;;1.35;0.60;;;22.30;55.60;;;;;;3109351;28;20042;-86
2021/08/17 04:54:49;;;;;;;1.25;0.70;;;22.20;55.70;;;;;;3109549;28;20050;-87
2021/08/17 04:56:24;;;;;;;1.48;0.68;;;22.20;55.80;;;;;;3109520;28;20054;-86
2021/08/17 04:57:56;;;;;;;1.05;0.68;;;22.10;55.80;;;;;;3107688;28;20046;-86
2021/08/17 04:59:28;;;;;;;1.27;0.77;;;22.10;55.90;;;;;;3108922;28;20443;-87
2021/08/17 05:01:01;;;;;;;0.80;0.50;;;22.10;55.80;;;;;;3104660;28;20041;-87
2021/08/17 05:02:33;;;;;;;1.23;0.60;;;22.20;55.90;;;;;;3116998;28;20132;-87
2021/08/17 05:04:07;;;;;;;1.10;0.70;;;22.10;55.90;;;;;;3124024;28;20452;-87
2021/08/17 05:05:39;;;;;;;0.93;0.60;;;22.10;56.00;;;;;;3117357;28;20161;-87
2021/08/17 05:07:11;;;;;;;0.60;0.50;;;22.10;56.00;;;;;;3110960;28;20053;-87
2021/08/17 05:08:42;;;;;;;0.90;0.60;;;22.10;56.20;;;;;;3111722;28;20057;-86
2021/08/17 05:10:15;;;;;;;1.00;0.60;;;22.10;56.20;;;;;;3110707;28;20050;-86
2021/08/17 05:11:47;;;;;;;;;;;22.00;56.20;;;;;;3106085;28;20084;-86
2021/08/17 05:13:19;;;;;;;1.30;0.73;;;22.00;56.30;;;;;;3110710;28;19925;-86
2021/08/17 05:14:50;;;;;;;0.73;0.63;;;22.00;56.30;;;;;;3111405;28;20092;-86
2021/08/17 05:16:23;;;;;;;1.20;0.75;;;22.00;56.40;;;;;;3110186;28;20046;-86
2021/08/17 05:17:55;;;;;;;0.75;0.60;;;21.90;56.50;;;;;;3111052;28;20615;-86
2021/08/17 05:19:27;;;;;;;1.00;0.60;;;21.80;56.70;;;;;;3110991;28;20050;-87
2021/08/17 05:20:59;;;;;;;1.15;0.70;;;21.90;56.70;;;;;;3112967;28;20080;-85
2021/08/17 05:22:30;;;;;;;1.60;0.70;;;21.80;56.70;;;;;;3114635;28;20454;-86
2021/08/17 05:24:02;;;;;;;1.77;0.60;;;21.80;57.00;;;;;;3111078;28;20069;-86
2021/08/17 05:25:34;;;;;;;2.20;0.80;;;21.80;56.80;;;;;;3111379;28;20051;-86
2021/08/17 05:27:06;;;;;;;1.20;0.80;;;21.80;56.80;;;;;;3109520;28;20053;-85
2021/08/17 05:28:37;;;;;;;1.27;0.60;;;21.90;56.70;;;;;;3111080;28;20046;-86
2021/08/17 05:30:10;;;;;;;0.90;0.60;;;21.80;56.70;;;;;;3110162;28;20388;-85
2021/08/17 05:31:43;;;;;;;1.00;0.80;;;21.90;56.60;;;;;;3111620;28;20117;-87
2021/08/17 05:33:14;;;;;;;1.33;0.68;;;21.90;56.50;;;;;;3118611;28;20046;-86
2021/08/17 05:34:46;;;;;;;1.40;0.80;;;21.80;56.70;;;;;;3112647;28;20054;-86
2021/08/17 05:36:18;;;;;;;1.02;0.60;;;21.70;57.00;;;;;;3118854;28;20048;-86
2021/08/17 05:37:49;;;;;;;1.50;0.63;;;21.70;57.00;;;;;;3112858;28;20050;-86
2021/08/17 05:39:21;;;;;;;1.23;0.65;;;21.70;57.00;;;;;;3110927;28;20145;-85
2021/08/17 05:40:53;;;;;;;1.73;0.70;;;21.60;57.20;;;;;;3109614;28;20415;-85
2021/08/17 05:42:25;;;;;;;1.13;0.60;;;21.60;57.40;;;;;;3106300;28;20060;-87
2021/08/17 05:43:56;;;;;;;1.00;0.63;;;21.60;57.50;;;;;;3113090;28;20038;-86
2021/08/17 05:45:28;;;;;;;1.40;0.77;;;21.60;57.40;;;;;;3110626;28;20104;-86
2021/08/17 05:47:01;;;;;;;1.15;0.77;;;21.60;57.20;;;;;;3110696;28;20046;-86
2021/08/17 05:48:33;;;;;;;1.27;0.60;;;21.70;57.20;;;;;;3111161;28;20049;-86
2021/08/17 05:50:06;;;;;;;1.67;0.70;;;21.60;57.20;;;;;;3110580;28;20057;-86
2021/08/17 05:51:38;;;;;;;1.67;0.57;;;21.60;57.30;;;;;;3109947;28;20495;-87
2021/08/17 05:53:09;;;;;;;1.83;0.68;;;21.60;57.40;;;;;;3111043;28;20053;-86
2021/08/17 05:54:41;;;;;;;0.95;0.60;;;21.50;57.60;;;;;;3111274;28;20108;-88
2021/08/17 05:56:13;;;;;;;1.30;0.70;;;21.50;57.70;;;;;;3110761;28;20085;-86
2021/08/17 05:57:55;;;;;;;1.75;0.80;;;21.60;57.70;;;;;;3110435;28;20454;-88
2021/08/17 05:59:27;;;;;;;0.70;0.50;;;21.60;57.60;;;;;;3110855;28;20058;-86
2021/08/17 06:00:58;;;;;;;1.92;0.70;;;21.70;57.40;;;;;;3119473;28;20060;-86
2021/08/17 06:02:31;;;;;;;1.10;0.50;;;21.70;57.50;;;;;;3109400;28;20054;-86
2021/08/17 06:04:03;;;;;;;2.22;0.50;;;21.80;57.30;;;;;;3110357;28;20049;-86
2021/08/17 06:05:35;;;;;;;1.52;0.70;;;21.90;57.00;;;;;;3110779;28;20050;-86
2021/08/17 06:07:07;;;;;;;1.38;0.70;;;22.00;56.90;;;;;;3111057;28;20050;-87
2021/08/17 06:08:39;;;;;;;1.02;0.60;;;22.00;56.80;;;;;;3111426;28;20068;-85
2021/08/17 06:10:11;;;;;;;3.85;0.60;;;22.20;56.50;;;;;;3112282;28;20083;-86
2021/08/17 06:11:43;;;;;;;0.98;0.60;;;22.20;56.30;;;;;;3106808;28;20048;-83
2021/08/17 06:13:14;;;;;;;2.97;0.80;;;22.30;56.10;;;;;;3111132;28;20407;-85
2021/08/17 06:14:46;;;;;;;3.72;0.70;;;22.40;55.90;;;;;;3109853;28;20041;-85
2021/08/17 06:16:18;;;;;;;7.30;1.00;;;22.50;56.10;;;;;;3109082;28;20042;-85
2021/08/17 06:17:51;;;;;;;3.03;0.88;;;22.60;56.50;;;;;;3109144;28;20042;-86
2021/08/17 06:19:22;;;;;;;4.47;1.17;;;22.70;56.80;;;;;;3109435;28;20160;-86
2021/08/17 06:20:54;;;;;;;6.22;1.50;;;22.80;57.10;;;;;;3118854;28;20076;-85
2021/08/17 06:22:26;;;;;;;6.43;1.40;;;22.80;57.40;;;;;;3114885;28;20049;-87
2021/08/17 06:23:57;;;;;;;4.43;1.30;;;22.90;57.80;;;;;;3123170;28;20053;-87
2021/08/17 06:25:29;;;;;;;5.63;1.23;;;23.00;58.00;;;;;;3109166;28;20058;-87
2021/08/17 06:27:01;;;;;;;6.83;1.40;;;23.00;58.40;;;;;;3109082;28;20545;-87
2021/08/17 06:28:33;;;;;;;5.53;1.60;;;22.90;58.50;;;;;;3122634;28;20104;-86
2021/08/17 06:30:06;;;;;;;6.55;1.63;;;23.00;58.70;;;;;;3115985;28;20049;-86
2021/08/17 06:31:38;;;;;;;4.20;1.23;;;23.00;59.00;;;;;;3107726;28;20054;-90
2021/08/17 06:33:11;;;;;;;7.28;1.50;;;23.00;59.30;;;;;;3110158;28;20070;-90
2021/08/17 06:34:43;;;;;;;9.32;1.77;;;23.00;59.80;;;;;;3109640;28;20060;-87
2021/08/17 06:36:15;;;;;;;6.82;1.40;;;23.00;59.60;;;;;;3118064;28;20042;-88
2021/08/17 06:37:46;;;;;;;7.97;1.70;;;23.00;59.30;;;;;;3117596;28;20049;-89
2021/08/17 06:39:20;;;;;;;5.35;1.42;;;23.00;59.50;;;;;;3121643;28;20049;-88
2021/08/17 06:40:52;;;;;;;10.43;1.73;;;23.00;60.00;;;;;;3121801;28;20057;-88
2021/08/17 06:42:24;;;;;;;5.60;1.40;;;23.00;59.30;;;;;;3109708;28;20046;-88
2021/08/17 06:43:55;;;;;;;7.47;1.73;;;23.00;59.30;;;;;;3112325;28;20053;-86
2021/08/17 06:45:27;;;;;;;6.07;1.65;;;23.00;59.30;;;;;;3120669;28;20130;-88
2021/08/17 06:46:59;;;;;;;6.22;1.60;;;23.10;59.30;;;;;;3120437;28;20068;-89
2021/08/17 06:48:32;;;;;;;7.68;1.50;;;23.10;59.20;;;;;;3121256;28;20053;-89
2021/08/17 06:50:05;;;;;;;5.60;1.33;;;23.10;59.40;;;;;;3120938;28;20045;-89
2021/08/17 06:51:36;;;;;;;7.22;1.40;;;23.10;59.40;;;;;;3120469;28;20506;-89
2021/08/17 06:53:08;;;;;;;8.25;1.63;;;23.00;59.50;;;;;;3120942;28;20041;-88
2021/08/17 06:54:40;;;;;;;5.15;1.45;;;23.00;59.60;;;;;;3122367;28;20045;-87
2021/08/17 06:56:11;;;;;;;8.23;1.75;;;23.00;59.50;;;;;;3121608;28;20057;-88
2021/08/17 06:57:43;;;;;;;14.20;2.35;;;23.00;59.80;;;;;;3122567;28;20046;-87
2021/08/17 06:59:15;;;;;;;13.10;1.75;;;22.90;60.20;;;;;;3121400;28;20045;-84
2021/08/17 07:00:47;;;;;;;9.30;1.90;;;22.90;60.50;;;;;;3117883;28;20045;-85
2021/08/17 07:02:19;;;;;;;17.52;1.80;;;22.80;60.70;;;;;;3115815;28;20049;-86
2021/08/17 07:03:52;;;;;;;13.18;1.88;;;22.80;60.90;;;;;;3114928;28;20522;-85
2021/08/17 07:05:24;;;;;;;9.95;1.73;;;22.80;61.20;;;;;;3113703;28;20058;-85
2021/08/17 07:06:55;;;;;;;10.77;2.15;;;22.90;61.10;;;;;;3121146;28;20075;-86
2021/08/17 07:08:27;;;;;;;10.43;2.00;;;22.80;61.20;;;;;;3118712;28;20099;-84
2021/08/17 07:09:59;;;;;;;9.27;1.70;;;22.80;61.10;;;;;;3121882;28;20111;-86
2021/08/17 07:11:30;;;;;;;5.50;1.70;;;22.80;61.60;;;;;;3121739;28;20054;-86
2021/08/17 07:13:02;;;;;;;10.52;2.00;;;22.80;61.50;;;;;;3111758;28;20057;-85
2021/08/17 07:14:34;;;;;;;6.60;2.05;;;22.80;61.90;;;;;;3121582;28;20060;-84
2021/08/17 07:16:05;;;;;;;12.75;2.47;;;22.80;61.60;;;;;;3120467;28;20122;-86
2021/08/17 07:17:37;;;;;;;10.70;1.85;;;22.80;61.80;;;;;;3121505;28;20062;-85
2021/08/17 07:19:10;;;;;;;6.10;1.77;;;22.90;61.50;;;;;;3122050;28;20056;-84
2021/08/17 07:20:42;;;;;;;19.00;1.85;;;22.80;61.60;;;;;;3118445;28;20049;-85
2021/08/17 07:22:14;;;;;;;6.50;1.77;;;22.90;61.90;;;;;;3132307;28;20041;-85
2021/08/17 07:23:46;;;;;;;11.20;2.15;;;22.80;61.90;;;;;;3135106;28;20053;-82
2021/08/17 07:25:18;;;;;;;9.48;2.08;;;22.80;62.20;;;;;;3125302;28;20046;-84
2021/08/17 07:26:49;;;;;;;12.45;2.03;;;22.80;62.20;;;;;;3120097;28;20073;-84
2021/08/17 07:28:21;;;;;;;6.47;1.80;;;22.80;62.20;;;;;;3117476;28;20419;-85
2021/08/17 07:29:53;;;;;;;7.80;1.90;;;22.70;62.50;;;;;;3123982;28;20054;-86
2021/08/17 07:31:24;;;;;;;12.93;2.40;;;22.60;62.80;;;;;;3123559;28;20086;-84
2021/08/17 07:32:56;;;;;;;9.82;2.00;;;22.60;63.20;;;;;;3121332;28;20051;-85
2021/08/17 07:34:29;;;;;;;12.73;2.00;;;22.60;63.70;;;;;;3123098;28;20414;-84
2021/08/17 07:36:01;;;;;;;14.60;2.20;;;22.60;63.40;;;;;;3123129;28;20049;-85
2021/08/17 07:37:33;;;;;;;13.75;2.38;;;22.70;63.20;;;;;;3121529;28;20045;-85
2021/08/17 07:39:04;;;;;;;7.28;1.80;;;22.60;63.10;;;;;;3122665;28;20407;-84
2021/08/17 07:40:36;;;;;;;12.25;2.63;;;22.70;63.00;;;;;;3117662;28;20156;-85
2021/08/17 07:42:08;;;;;;;10.95;1.92;;;22.70;63.00;;;;;;3121533;28;20053;-83
2021/08/17 07:43:40;;;;;;;7.55;2.10;;;22.80;62.90;;;;;;3121390;28;20053;-85
2021/08/17 07:45:12;;;;;;;10.23;2.20;;;22.80;62.80;;;;;;3121241;28;20049;-85
2021/08/17 07:46:44;;;;;;;11.70;1.98;;;22.90;62.80;;;;;;3121452;28;20053;-85
2021/08/17 07:48:15;;;;;;;9.30;1.95;;;22.80;62.80;;;;;;3121527;28;20045;-84
2021/08/17 07:49:48;;;;;;;7.50;2.47;;;22.90;62.80;;;;;;3113257;28;20049;-86
2021/08/17 07:51:20;;;;;;;4.28;1.92;;;22.90;62.70;;;;;;3122332;28;20050;-84
2021/08/17 07:52:52;;;;;;;10.05;2.20;;;22.90;62.70;;;;;;3122531;28;20046;-84
2021/08/17 07:54:23;;;;;;;11.15;2.17;;;22.90;62.50;;;;;;3122463;28;20053;-85
2021/08/17 07:55:55;;;;;;;6.30;1.70;;;23.00;62.50;;;;;;3122602;28;20483;-84
2021/08/17 07:57:27;;;;;;;6.07;1.65;;;22.90;62.50;;;;;;3122333;28;20554;-83